Time;durP1;ratioP1;P1;durP2;ratioP2;P2;SDS_P1;SDS_P2;PMS_P1;PMS_P2;Temp;Humidity;BMP_temperature;BMP_pressure;BME280_temperature;BME280_humidity;BME280_pressure;Samples;Min_cycle;Max_cycle;Signal;HPM_P1;HPM_P2
2023/08/27 07:47:25;;;;;;;1.63;1.08;;;16.30;87.40;;;;;;5475461;23;20046;-77
2023/08/27 07:49:51;;;;;;;2.30;0.93;;;16.50;85.90;;;;;;4949481;28;20381;-79
2023/08/27 07:52:16;;;;;;;1.48;0.90;;;16.60;86.40;;;;;;4941893;28;20152;-77
2023/08/27 07:54:43;;;;;;;1.10;0.70;;;16.70;86.00;;;;;;4942299;28;20042;-79
2023/08/27 07:57:09;;;;;;;1.15;0.60;;;16.80;85.50;;;;;;4942151;28;20047;-79
2023/08/27 07:59:37;;;;;;;0.95;0.63;;;17.00;84.50;;;;;;4941751;28;20050;-77
2023/08/27 08:02:03;;;;;;;2.15;0.70;;;17.10;84.00;;;;;;4957538;28;20129;-80
2023/08/27 08:04:29;;;;;;;1.10;0.70;;;17.20;81.60;;;;;;4941823;28;20086;-79
2023/08/27 08:06:54;;;;;;;1.17;0.70;;;17.30;81.80;;;;;;4958160;28;20057;-80
2023/08/27 08:09:20;;;;;;;1.70;0.70;;;17.30;81.20;;;;;;4910423;28;20419;-82
2023/08/27 08:11:46;;;;;;;1.63;0.60;;;17.40;80.60;;;;;;4925767;28;20043;-80
2023/08/27 08:14:11;;;;;;;1.58;0.85;;;17.50;80.40;;;;;;4941981;28;20050;-78
2023/08/27 08:16:37;;;;;;;1.88;0.95;;;17.50;77.20;;;;;;4941440;28;20045;-79
2023/08/27 08:19:03;;;;;;;4.40;0.80;;;17.50;77.70;;;;;;4925515;28;20435;-80
2023/08/27 08:21:28;;;;;;;4.43;0.90;;;17.60;77.80;;;;;;4957118;28;20049;-81
2023/08/27 08:23:54;;;;;;;2.05;0.70;;;17.70;77.80;;;;;;4941269;28;20050;-80
2023/08/27 08:26:20;;;;;;;1.77;0.80;;;17.70;76.60;;;;;;4925773;28;20042;-80
2023/08/27 08:28:49;;;;;;;1.60;0.82;;;17.80;75.50;;;;;;4941856;28;20418;-80
2023/08/27 08:31:15;;;;;;;1.70;0.70;;;17.90;76.60;;;;;;4941140;28;20134;-80
2023/08/27 08:33:40;;;;;;;2.47;1.10;;;18.00;76.50;;;;;;4957383;28;20089;-81
2023/08/27 08:36:06;;;;;;;2.20;0.70;;;18.00;76.10;;;;;;4925448;28;20507;-80
2023/08/27 08:38:33;;;;;;;0.95;0.50;;;18.00;73.50;;;;;;4956878;28;20039;-80
2023/08/27 08:41:01;;;;;;;3.70;0.77;;;18.00;73.50;;;;;;4925664;28;20196;-79
2023/08/27 08:43:35;;;;;;;1.60;0.60;;;18.10;73.40;;;;;;4957006;28;20039;-81
2023/08/27 08:46:09;;;;;;;1.00;0.50;;;18.10;71.40;;;;;;4957313;28;20384;-79
2023/08/27 08:48:38;;;;;;;;;;;18.20;72.60;;;;;;4925875;28;20385;-78
2023/08/27 08:51:06;;;;;;;1.25;0.52;;;18.30;72.70;;;;;;4956972;28;19918;-81
2023/08/27 08:53:41;;;;;;;1.33;0.70;;;18.40;73.10;;;;;;4960378;28;20512;-80
2023/08/27 08:56:14;;;;;;;1.10;0.73;;;18.50;71.70;;;;;;4960835;28;20042;-80
2023/08/27 08:58:44;;;;;;;1.10;0.60;;;18.60;73.20;;;;;;4961168;28;20150;-78
2023/08/27 09:01:10;;;;;;;2.40;0.80;;;18.60;73.40;;;;;;4960592;28;20118;-78
2023/08/27 09:03:40;;;;;;;1.15;0.65;;;18.50;73.50;;;;;;4961087;28;20391;-79
2023/08/27 09:06:06;;;;;;;2.92;0.80;;;18.30;74.70;;;;;;4944618;28;20499;-79
2023/08/27 09:08:34;;;;;;;3.83;0.98;;;18.20;75.40;;;;;;4944868;28;20053;-78
2023/08/27 09:11:01;;;;;;;1.30;0.60;;;18.00;76.30;;;;;;4960724;28;20043;-80
2023/08/27 09:13:27;;;;;;;5.80;0.70;;;18.00;76.60;;;;;;4944986;28;20066;-79
2023/08/27 09:15:53;;;;;;;8.13;0.68;;;18.00;76.10;;;;;;4944508;28;20039;-81
2023/08/27 09:18:18;;;;;;;1.15;0.52;;;18.00;75.10;;;;;;4928875;28;20101;-78
2023/08/27 09:20:44;;;;;;;2.42;0.60;;;18.10;74.30;;;;;;4928520;28;20420;-80
2023/08/27 09:23:12;;;;;;;1.42;0.60;;;18.30;72.30;;;;;;4944590;28;20039;-81
2023/08/27 09:25:38;;;;;;;0.57;0.50;;;18.50;71.70;;;;;;4944329;28;20399;-80
2023/08/27 09:28:06;;;;;;;2.10;0.77;;;18.60;71.50;;;;;;4944511;28;20049;-81
2023/08/27 09:30:32;;;;;;;1.13;0.63;;;18.80;71.90;;;;;;4960388;28;20046;-82
2023/08/27 09:32:58;;;;;;;1.40;0.82;;;18.60;72.10;;;;;;4944505;28;20043;-80
2023/08/27 09:35:39;;;;;;;1.10;1.00;;;18.60;72.40;;;;;;4944236;28;20073;-80
2023/08/27 09:38:05;;;;;;;3.05;1.05;;;18.50;73.20;;;;;;4944364;28;20046;-80
2023/08/27 09:40:31;;;;;;;1.85;0.70;;;18.50;73.30;;;;;;4960305;28;20049;-83
2023/08/27 09:43:08;;;;;;;3.00;0.90;;;18.30;73.80;;;;;;4912586;28;20101;-79
2023/08/27 09:45:35;;;;;;;1.30;0.80;;;18.20;74.00;;;;;;4960198;28;20047;-79
2023/08/27 09:48:03;;;;;;;2.88;1.23;;;18.20;75.00;;;;;;4943845;28;20055;-79
2023/08/27 09:50:30;;;;;;;1.83;1.08;;;18.10;75.60;;;;;;4959793;28;20534;-81
2023/08/27 09:53:11;;;;;;;1.70;0.90;;;18.10;75.70;;;;;;4943815;28;20050;-81
2023/08/27 09:55:37;;;;;;;1.77;1.13;;;18.00;75.60;;;;;;4959660;28;20101;-80
2023/08/27 09:58:04;;;;;;;3.20;1.20;;;18.00;76.10;;;;;;4944000;28;20039;-81
2023/08/27 10:00:31;;;;;;;1.98;1.17;;;17.90;76.80;;;;;;4959688;28;20038;-81
2023/08/27 10:02:57;;;;;;;1.98;1.20;;;17.90;77.20;;;;;;4928239;28;20081;-79
2023/08/27 10:05:31;;;;;;;5.43;1.65;;;17.80;77.70;;;;;;4943187;28;20047;-78
2023/08/27 10:08:05;;;;;;;3.92;1.88;;;17.80;79.10;;;;;;4943799;28;20123;-77
2023/08/27 10:10:33;;;;;;;2.97;1.65;;;17.60;80.00;;;;;;4943586;28;20045;-78
2023/08/27 10:13:00;;;;;;;4.32;2.13;;;17.40;81.70;;;;;;4944108;28;20050;-79
2023/08/27 10:15:27;;;;;;;4.05;2.45;;;17.30;81.90;;;;;;4943439;28;20501;-78
2023/08/27 10:17:53;;;;;;;5.40;2.20;;;17.30;82.50;;;;;;4943545;28;20035;-79
2023/08/27 10:20:20;;;;;;;2.83;2.45;;;17.20;82.90;;;;;;4943392;28;20399;-79
2023/08/27 10:22:47;;;;;;;3.03;1.90;;;17.10;83.30;;;;;;4959220;28;20050;-78
2023/08/27 10:25:16;;;;;;;2.97;2.38;;;17.20;83.90;;;;;;4943972;28;20047;-78
2023/08/27 10:27:42;;;;;;;6.78;1.95;;;17.10;83.70;;;;;;4943474;28;20047;-79
2023/08/27 10:30:09;;;;;;;2.85;2.40;;;17.10;83.90;;;;;;4942830;28;20578;-79
2023/08/27 10:32:35;;;;;;;4.03;1.90;;;17.10;83.90;;;;;;4942786;28;20047;-79
2023/08/27 10:35:05;;;;;;;2.90;1.98;;;17.10;84.10;;;;;;4927187;28;20178;-79
2023/08/27 10:37:32;;;;;;;3.42;1.80;;;17.20;83.40;;;;;;4943648;28;20085;-79
2023/08/27 10:39:59;;;;;;;3.20;2.00;;;17.10;82.60;;;;;;4943116;28;20039;-79
2023/08/27 10:42:33;;;;;;;2.50;1.70;;;17.10;83.00;;;;;;4958973;28;20038;-79
2023/08/27 10:45:21;;;;;;;2.83;1.92;;;17.10;83.00;;;;;;4958716;28;20526;-79
2023/08/27 10:48:10;;;;;;;3.80;1.98;;;17.20;82.80;;;;;;4942571;28;20142;-79
2023/08/27 10:50:47;;;;;;;4.00;1.88;;;17.20;83.00;;;;;;4927302;28;20134;-79
2023/08/27 10:53:16;;;;;;;3.22;1.70;;;17.20;83.00;;;;;;4958245;28;20049;-79
2023/08/27 10:55:48;;;;;;;4.80;1.90;;;17.20;82.90;;;;;;4926704;28;20049;-79
2023/08/27 10:58:22;;;;;;;4.28;2.20;;;17.20;81.90;;;;;;4943253;28;20047;-80
2023/08/27 11:01:13;;;;;;;2.75;1.70;;;17.20;82.30;;;;;;4958126;28;20039;-79
2023/08/27 11:03:55;;;;;;;4.60;1.15;;;17.20;82.20;;;;;;4942116;28;20038;-78
2023/08/27 11:06:32;;;;;;;2.40;0.80;;;17.00;79.10;;;;;;4958173;28;20043;-78
2023/08/27 11:08:59;;;;;;;4.88;0.90;;;16.50;80.10;;;;;;4941956;28;20042;-77
2023/08/27 11:11:26;;;;;;;8.57;1.77;;;16.30;79.80;;;;;;4957667;28;20121;-78
2023/08/27 11:14:22;;;;;;;4.30;0.98;;;16.10;80.90;;;;;;4942111;28;20053;-78
2023/08/27 11:16:59;;;;;;;3.65;1.08;;;15.70;82.40;;;;;;4928836;28;20065;-78
2023/08/27 11:19:38;;;;;;;2.55;0.75;;;15.40;82.90;;;;;;4957863;28;20046;-77
2023/08/27 11:22:14;;;;;;;4.68;1.00;;;15.30;83.70;;;;;;4957748;28;20049;-78
2023/08/27 11:24:55;;;;;;;1.88;0.80;;;15.30;84.40;;;;;;4957933;28;20042;-76
2023/08/27 11:27:22;;;;;;;5.03;0.93;;;15.20;84.60;;;;;;4939824;28;20058;-77
2023/08/27 11:29:53;;;;;;;4.22;0.90;;;15.30;85.00;;;;;;4941353;28;20070;-79
2023/08/27 11:32:20;;;;;;;5.47;0.80;;;15.10;85.50;;;;;;4941486;28;20043;-77
2023/08/27 11:34:51;;;;;;;2.28;0.80;;;15.10;85.60;;;;;;4941131;28;20510;-77
2023/08/27 11:37:17;;;;;;;3.20;0.80;;;15.00;86.40;;;;;;4941842;28;20043;-77
2023/08/27 11:39:44;;;;;;;2.65;0.77;;;15.00;86.40;;;;;;4989996;28;20124;-77
2023/08/27 11:42:14;;;;;;;1.60;0.88;;;15.00;86.90;;;;;;4989657;28;20091;-77
2023/08/27 11:44:55;;;;;;;2.22;0.80;;;15.00;87.50;;;;;;4957586;28;20042;-78
2023/08/27 11:47:22;;;;;;;1.15;0.70;;;15.10;87.20;;;;;;4938097;29;20055;-77
2023/08/27 11:49:50;;;;;;;1.17;0.73;;;15.10;88.10;;;;;;4954317;28;20400;-76
2023/08/27 11:52:16;;;;;;;1.60;0.80;;;15.30;87.60;;;;;;4986322;28;20039;-78
2023/08/27 11:54:46;;;;;;;2.13;0.98;;;15.50;87.40;;;;;;4970118;28;20126;-77
2023/08/27 11:57:14;;;;;;;1.42;0.70;;;15.70;88.60;;;;;;4922553;29;20083;-76
2023/08/27 11:59:40;;;;;;;3.28;1.00;;;15.90;87.60;;;;;;4969540;28;20046;-77
2023/08/27 12:02:07;;;;;;;1.35;0.70;;;16.00;86.70;;;;;;4953689;29;20039;-77
2023/08/27 12:04:34;;;;;;;2.67;1.40;;;16.20;85.90;;;;;;4954050;29;20051;-75
2023/08/27 12:07:03;;;;;;;1.88;1.25;;;16.30;85.70;;;;;;4937939;29;20053;-78
2023/08/27 12:09:33;;;;;;;2.45;0.82;;;16.50;85.20;;;;;;4938169;29;20047;-77
2023/08/27 12:12:10;;;;;;;1.17;0.55;;;16.90;85.30;;;;;;4985488;28;20168;-77
2023/08/27 12:14:37;;;;;;;1.48;1.13;;;17.30;84.90;;;;;;4938131;29;20049;-79
2023/08/27 12:17:08;;;;;;;4.22;0.60;;;17.70;83.60;;;;;;4937434;29;20047;-78
2023/08/27 12:19:35;;;;;;;2.10;0.60;;;18.00;81.40;;;;;;4985718;28;20039;-77
2023/08/27 12:22:01;;;;;;;0.90;0.57;;;18.30;81.60;;;;;;4953725;28;20127;-78
2023/08/27 12:24:40;;;;;;;1.95;0.60;;;18.50;80.40;;;;;;4937408;28;20126;-78
2023/08/27 12:27:08;;;;;;;2.80;0.80;;;18.50;79.20;;;;;;4985386;28;20555;-78
2023/08/27 12:29:37;;;;;;;1.67;0.80;;;18.50;79.00;;;;;;4985500;28;20477;-77
2023/08/27 12:32:07;;;;;;;3.63;1.38;;;18.60;78.30;;;;;;4937523;29;20039;-78
2023/08/27 12:34:35;;;;;;;3.28;1.15;;;18.60;78.30;;;;;;4985695;28;20448;-78
2023/08/27 12:37:02;;;;;;;4.30;1.10;;;18.50;78.30;;;;;;4952958;29;20130;-78
2023/08/27 12:39:29;;;;;;;2.97;0.70;;;18.40;79.10;;;;;;4937485;29;20039;-77
2023/08/27 12:41:54;;;;;;;3.90;0.95;;;18.20;79.30;;;;;;4953692;29;20400;-77
2023/08/27 12:44:20;;;;;;;2.85;0.95;;;18.20;79.20;;;;;;4969926;28;20039;-78
2023/08/27 12:46:46;;;;;;;3.03;0.90;;;18.40;79.70;;;;;;4969730;28;20043;-78
2023/08/27 12:49:11;;;;;;;5.53;1.27;;;18.50;79.70;;;;;;4952673;29;20500;-79
2023/08/27 12:51:37;;;;;;;5.97;1.45;;;18.50;78.80;;;;;;4985745;28;20054;-76
2023/08/27 12:54:04;;;;;;;10.68;1.60;;;18.40;79.10;;;;;;4953637;29;20489;-75
2023/08/27 12:56:33;;;;;;;1.98;1.30;;;18.40;78.90;;;;;;4969130;28;20054;-78
2023/08/27 12:58:58;;;;;;;4.10;0.88;;;18.40;78.50;;;;;;4985486;28;20047;-79
2023/08/27 13:01:24;;;;;;;3.40;0.93;;;18.80;76.50;;;;;;4985456;28;20134;-78
2023/08/27 13:03:50;;;;;;;4.57;1.13;;;19.00;75.80;;;;;;4969255;28;20044;-80
2023/08/27 13:06:16;;;;;;;3.83;0.98;;;19.00;75.70;;;;;;4953149;28;20047;-78
2023/08/27 13:08:42;;;;;;;3.53;1.00;;;18.90;75.40;;;;;;4937669;29;20047;-78
2023/08/27 13:11:07;;;;;;;3.25;1.00;;;18.80;75.90;;;;;;4953249;28;20476;-79
2023/08/27 13:13:33;;;;;;;3.72;1.05;;;18.70;77.70;;;;;;4953309;29;20110;-78
2023/08/27 13:15:59;;;;;;;7.03;2.45;;;18.50;79.00;;;;;;4969466;28;20435;-77
2023/08/27 13:18:24;;;;;;;2.67;1.20;;;18.00;80.50;;;;;;4953146;28;20094;-78
2023/08/27 13:20:50;;;;;;;2.47;1.10;;;17.70;81.50;;;;;;4985557;28;20047;-78
2023/08/27 13:23:16;;;;;;;3.88;1.25;;;17.70;82.20;;;;;;4936978;29;20483;-79
2023/08/27 13:25:42;;;;;;;2.92;1.15;;;17.70;82.40;;;;;;4953060;28;20042;-78
2023/08/27 13:28:08;;;;;;;1.85;0.85;;;18.00;82.70;;;;;;4969152;28;20035;-78
2023/08/27 13:30:34;;;;;;;3.90;1.95;;;18.40;83.30;;;;;;4969056;28;20542;-77
2023/08/27 13:32:59;;;;;;;4.65;1.67;;;18.70;83.00;;;;;;4953387;29;20058;-78
2023/08/27 13:35:25;;;;;;;3.30;1.30;;;18.80;82.40;;;;;;4969417;28;20440;-77
2023/08/27 13:37:51;;;;;;;2.63;1.10;;;19.00;81.40;;;;;;4969340;28;20122;-74
2023/08/27 13:40:19;;;;;;;2.28;1.30;;;19.30;81.10;;;;;;4955354;28;20122;-75
2023/08/27 13:42:45;;;;;;;3.45;1.90;;;19.40;78.50;;;;;;4955915;28;20503;-77
2023/08/27 13:45:11;;;;;;;5.07;1.30;;;19.70;77.90;;;;;;4956256;29;20051;-74
2023/08/27 13:47:37;;;;;;;4.47;0.90;;;19.70;76.60;;;;;;4990511;28;20050;-78
2023/08/27 13:50:03;;;;;;;2.28;1.00;;;19.80;76.00;;;;;;4959229;28;20411;-76
2023/08/27 13:52:29;;;;;;;3.55;1.40;;;20.00;73.90;;;;;;4975863;28;20423;-76
2023/08/27 13:54:55;;;;;;;6.32;1.02;;;20.20;73.40;;;;;;4975482;28;20049;-76
2023/08/27 13:57:20;;;;;;;3.15;1.00;;;20.20;72.90;;;;;;4975372;28;20043;-77
2023/08/27 13:59:46;;;;;;;7.47;1.20;;;20.20;73.00;;;;;;4975174;28;20043;-77
2023/08/27 14:02:12;;;;;;;2.70;1.08;;;19.90;72.30;;;;;;4975218;28;20042;-78
2023/08/27 14:04:38;;;;;;;1.92;0.75;;;19.80;71.40;;;;;;4991446;28;20038;-77
2023/08/27 14:07:04;;;;;;;3.05;0.65;;;19.70;67.90;;;;;;4975201;28;20050;-78
2023/08/27 14:09:31;;;;;;;1.98;0.63;;;19.70;67.70;;;;;;4959306;28;20049;-78
2023/08/27 14:11:57;;;;;;;1.33;0.55;;;19.50;67.20;;;;;;4943257;28;20497;-78
2023/08/27 14:14:22;;;;;;;1.20;0.68;;;19.20;68.60;;;;;;4959135;28;20132;-78
2023/08/27 14:16:48;;;;;;;1.75;1.10;;;18.90;69.00;;;;;;4974962;28;20054;-76
2023/08/27 14:19:14;;;;;;;1.55;0.82;;;18.50;70.80;;;;;;4974990;28;20074;-79
2023/08/27 14:21:40;;;;;;;3.58;0.93;;;18.50;72.40;;;;;;4975339;28;20038;-79
2023/08/27 14:24:06;;;;;;;4.93;1.70;;;18.50;74.10;;;;;;4975564;28;20065;-77
2023/08/27 14:26:35;;;;;;;5.82;1.20;;;18.70;75.70;;;;;;4991644;28;20487;-78
2023/08/27 14:29:00;;;;;;;6.13;1.48;;;18.80;75.80;;;;;;4958992;28;20488;-79
2023/08/27 14:31:26;;;;;;;3.38;1.30;;;18.90;74.60;;;;;;4942842;28;20050;-79
2023/08/27 14:33:52;;;;;;;2.30;0.98;;;19.00;74.80;;;;;;4959042;28;20046;-77
2023/08/27 14:36:17;;;;;;;2.72;1.30;;;19.10;73.70;;;;;;4974706;28;20550;-79
2023/08/27 14:38:44;;;;;;;3.92;1.65;;;19.40;73.40;;;;;;4974919;28;20129;-80
2023/08/27 14:41:10;;;;;;;3.10;0.80;;;19.70;73.40;;;;;;4974579;28;20484;-79
2023/08/27 14:43:36;;;;;;;3.60;1.27;;;19.90;71.60;;;;;;4974648;28;20035;-79
2023/08/27 14:46:01;;;;;;;5.18;1.35;;;20.00;71.20;;;;;;4974449;28;20385;-79
2023/08/27 14:48:27;;;;;;;2.30;0.90;;;20.00;70.60;;;;;;4974401;28;20059;-79
2023/08/27 14:50:53;;;;;;;4.90;1.17;;;20.10;70.90;;;;;;4990503;28;20496;-79
2023/08/27 14:53:18;;;;;;;2.05;0.88;;;20.00;69.90;;;;;;4958249;28;20109;-79
2023/08/27 14:55:44;;;;;;;1.20;0.90;;;20.20;69.90;;;;;;4958301;28;20049;-79
2023/08/27 14:58:10;;;;;;;1.48;0.80;;;20.20;69.20;;;;;;4974578;28;20038;-80
2023/08/27 15:00:36;;;;;;;1.98;1.10;;;20.20;68.40;;;;;;4966734;28;20033;-79
2023/08/27 15:03:01;;;;;;;1.95;1.00;;;20.20;67.70;;;;;;4963245;28;20495;-77
2023/08/27 15:05:27;;;;;;;3.13;1.05;;;20.40;67.40;;;;;;4951918;28;20074;-79
2023/08/27 15:07:53;;;;;;;3.42;1.02;;;20.40;67.60;;;;;;4989572;28;20051;-77
2023/08/27 15:10:19;;;;;;;3.80;1.45;;;20.40;67.20;;;;;;4978562;28;20062;-78
2023/08/27 15:12:45;;;;;;;1.73;0.98;;;20.30;67.00;;;;;;4978939;28;20043;-77
2023/08/27 15:15:10;;;;;;;2.65;1.05;;;20.30;65.60;;;;;;4995755;28;20095;-77
2023/08/27 15:17:37;;;;;;;2.38;1.05;;;20.40;65.50;;;;;;4977817;28;20044;-79
2023/08/27 15:20:03;;;;;;;2.53;1.25;;;20.40;65.80;;;;;;4959752;28;20097;-79
2023/08/27 15:22:29;;;;;;;3.00;1.13;;;20.40;66.30;;;;;;4991436;28;20129;-80
2023/08/27 15:24:55;;;;;;;1.77;0.95;;;20.30;66.90;;;;;;4958628;28;20121;-80
2023/08/27 15:27:21;;;;;;;2.13;1.00;;;20.10;67.60;;;;;;4991269;28;20098;-79
2023/08/27 15:29:46;;;;;;;2.10;1.00;;;19.60;67.70;;;;;;4942413;28;20126;-79
2023/08/27 15:32:12;;;;;;;2.97;1.00;;;19.30;68.80;;;;;;4958470;28;20125;-79
2023/08/27 15:34:38;;;;;;;3.42;1.30;;;19.00;71.50;;;;;;4958188;28;20050;-78
2023/08/27 15:37:05;;;;;;;2.38;1.50;;;18.90;74.20;;;;;;4941948;28;20399;-78
2023/08/27 15:39:30;;;;;;;5.43;1.85;;;18.60;75.70;;;;;;4974196;28;20113;-79
2023/08/27 15:41:56;;;;;;;1.67;0.93;;;18.60;75.90;;;;;;4973908;28;20113;-79
2023/08/27 15:44:22;;;;;;;2.33;1.20;;;18.50;77.10;;;;;;4991393;28;20046;-78
2023/08/27 15:46:47;;;;;;;2.90;1.00;;;18.50;77.30;;;;;;4958043;28;20646;-79
2023/08/27 15:49:13;;;;;;;2.85;1.23;;;18.50;77.60;;;;;;4974259;28;20063;-79
2023/08/27 15:51:39;;;;;;;3.92;1.15;;;18.40;77.90;;;;;;4957930;28;20061;-78
2023/08/27 15:54:05;;;;;;;2.88;1.10;;;18.60;77.90;;;;;;4973536;28;20125;-76
2023/08/27 15:56:34;;;;;;;5.80;1.33;;;18.80;77.70;;;;;;4973663;28;20098;-77
2023/08/27 15:58:59;;;;;;;5.18;1.33;;;19.00;76.90;;;;;;4973371;28;20372;-78
2023/08/27 16:01:25;;;;;;;2.25;0.70;;;19.20;75.10;;;;;;4973270;28;20045;-78
2023/08/27 16:03:51;;;;;;;5.30;1.10;;;19.40;73.80;;;;;;4957088;28;20042;-78
2023/08/27 16:06:18;;;;;;;4.18;0.90;;;19.50;73.40;;;;;;4957187;28;20170;-77
2023/08/27 16:08:44;;;;;;;4.63;0.90;;;19.50;73.30;;;;;;4989605;28;20058;-77
2023/08/27 16:11:10;;;;;;;4.32;1.30;;;19.70;73.10;;;;;;4941301;28;20039;-77
2023/08/27 16:13:37;;;;;;;3.22;1.30;;;19.60;71.80;;;;;;4957782;28;20050;-77
2023/08/27 16:16:04;;;;;;;2.42;0.70;;;19.40;70.30;;;;;;4989216;28;20042;-77
2023/08/27 16:18:30;;;;;;;1.70;0.70;;;19.10;71.20;;;;;;4956828;28;20125;-77
2023/08/27 16:20:56;;;;;;;2.13;0.70;;;18.70;73.00;;;;;;4989470;28;20046;-76
2023/08/27 16:23:23;;;;;;;2.33;0.80;;;18.50;73.80;;;;;;4989270;28;20043;-77
2023/08/27 16:25:49;;;;;;;4.88;1.00;;;18.30;75.20;;;;;;4957225;28;20052;-78
2023/08/27 16:28:15;;;;;;;1.55;0.77;;;18.20;76.00;;;;;;4957272;28;20038;-78
2023/08/27 16:30:41;;;;;;;5.15;1.27;;;18.00;76.60;;;;;;4989649;28;20047;-79
2023/08/27 16:33:08;;;;;;;2.45;0.77;;;18.00;76.80;;;;;;4941275;28;20074;-80
2023/08/27 16:35:34;;;;;;;6.85;1.40;;;17.90;78.00;;;;;;4972912;28;20407;-79
2023/08/27 16:38:00;;;;;;;2.35;0.80;;;17.80;78.40;;;;;;4989044;28;20039;-77
2023/08/27 16:40:34;;;;;;;3.58;0.85;;;17.80;78.90;;;;;;4989092;28;20074;-78
2023/08/27 16:42:59;;;;;;;3.65;1.52;;;17.60;78.90;;;;;;4989274;28;20113;-79
2023/08/27 16:45:26;;;;;;;3.03;0.98;;;17.70;79.00;;;;;;4972925;28;20038;-79
2023/08/27 16:47:52;;;;;;;2.85;0.82;;;17.50;79.60;;;;;;4988955;28;20492;-79
2023/08/27 16:50:19;;;;;;;2.53;0.80;;;17.50;81.00;;;;;;4956473;28;20062;-78
2023/08/27 16:52:45;;;;;;;3.83;1.05;;;17.40;80.70;;;;;;4956393;28;20043;-79
2023/08/27 16:55:11;;;;;;;3.65;1.38;;;17.40;80.40;;;;;;4956358;28;20039;-79
2023/08/27 16:57:37;;;;;;;2.35;0.70;;;17.40;81.10;;;;;;4988894;28;20042;-78
2023/08/27 17:00:05;;;;;;;4.15;1.13;;;17.50;80.90;;;;;;4988782;28;20046;-79
2023/08/27 17:02:31;;;;;;;3.33;0.93;;;17.60;80.80;;;;;;4988900;28;20043;-79
2023/08/27 17:04:56;;;;;;;6.13;1.38;;;17.70;81.00;;;;;;4956883;28;20179;-79
2023/08/27 17:07:22;;;;;;;1.48;0.70;;;17.70;80.30;;;;;;4956473;28;20488;-79
2023/08/27 17:09:48;;;;;;;2.45;0.88;;;17.70;79.60;;;;;;4972464;28;20043;-79
2023/08/27 17:12:13;;;;;;;1.80;0.70;;;17.80;76.40;;;;;;4972681;28;20094;-80
2023/08/27 17:14:39;;;;;;;2.63;1.02;;;17.70;76.00;;;;;;4974297;28;20051;-79
2023/08/27 17:17:05;;;;;;;2.50;1.05;;;17.70;75.50;;;;;;4976177;28;20050;-79
2023/08/27 17:19:30;;;;;;;3.35;1.17;;;17.70;74.60;;;;;;4975998;28;20131;-80
2023/08/27 17:21:56;;;;;;;3.13;1.15;;;17.70;74.70;;;;;;4976213;28;20046;-79
2023/08/27 17:24:22;;;;;;;2.88;1.13;;;17.70;75.30;;;;;;4975975;28;20041;-79
2023/08/27 17:26:47;;;;;;;2.80;0.88;;;17.70;75.80;;;;;;4960162;28;20054;-79
2023/08/27 17:29:13;;;;;;;3.70;1.50;;;17.50;76.70;;;;;;4943895;28;20134;-79
2023/08/27 17:31:39;;;;;;;3.35;1.20;;;17.50;77.20;;;;;;4992131;28;20130;-79
2023/08/27 17:34:04;;;;;;;4.07;1.30;;;17.30;77.80;;;;;;4975907;28;20047;-79
2023/08/27 17:36:32;;;;;;;1.70;0.98;;;17.10;78.70;;;;;;4991949;28;20047;-79
2023/08/27 17:38:58;;;;;;;3.20;0.90;;;17.00;79.30;;;;;;4959328;28;20502;-79
2023/08/27 17:41:25;;;;;;;3.22;1.13;;;17.00;79.20;;;;;;4959806;28;20039;-80
2023/08/27 17:43:51;;;;;;;2.28;1.00;;;16.80;79.70;;;;;;4992295;28;20066;-79
2023/08/27 17:46:17;;;;;;;5.85;2.20;;;16.70;79.80;;;;;;4975967;28;20042;-79
2023/08/27 17:48:43;;;;;;;2.45;1.10;;;16.70;80.20;;;;;;4959414;28;20461;-80
2023/08/27 17:51:08;;;;;;;4.03;0.90;;;16.70;80.30;;;;;;4943503;28;20057;-79
2023/08/27 17:53:34;;;;;;;2.92;1.10;;;16.50;81.40;;;;;;4959333;28;20081;-79
2023/08/27 17:56:00;;;;;;;3.17;1.50;;;16.50;81.80;;;;;;4975427;28;20046;-79
2023/08/27 17:58:25;;;;;;;3.17;1.10;;;16.40;81.90;;;;;;4975736;28;20039;-79
2023/08/27 18:00:54;;;;;;;2.47;1.30;;;16.50;82.50;;;;;;4959300;28;20567;-80
2023/08/27 18:03:22;;;;;;;2.97;1.25;;;16.40;82.90;;;;;;4991887;28;20458;-79
2023/08/27 18:05:48;;;;;;;3.72;1.70;;;16.40;83.00;;;;;;4975182;28;20042;-79
2023/08/27 18:08:17;;;;;;;3.90;1.20;;;16.40;83.20;;;;;;4975520;28;20078;-79
2023/08/27 18:10:43;;;;;;;3.65;1.38;;;16.40;83.40;;;;;;4991311;28;20505;-79
2023/08/27 18:13:09;;;;;;;5.22;1.20;;;16.30;84.00;;;;;;4975266;28;20133;-79
2023/08/27 18:15:35;;;;;;;2.00;1.10;;;16.30;83.50;;;;;;4991560;28;20042;-78
2023/08/27 18:18:00;;;;;;;4.10;1.25;;;16.20;83.80;;;;;;4959283;28;20043;-79
2023/08/27 18:20:26;;;;;;;3.22;1.08;;;16.20;83.80;;;;;;4959426;28;20452;-79
2023/08/27 18:22:52;;;;;;;3.55;1.30;;;16.10;83.90;;;;;;4975391;28;20538;-79
2023/08/27 18:25:17;;;;;;;8.88;1.73;;;16.10;84.30;;;;;;4958743;28;20479;-79
2023/08/27 18:27:43;;;;;;;3.58;1.20;;;16.20;84.40;;;;;;4974861;28;20046;-79
2023/08/27 18:30:09;;;;;;;4.43;1.35;;;16.10;84.30;;;;;;4974768;28;20189;-80
2023/08/27 18:32:36;;;;;;;3.97;1.33;;;16.10;84.30;;;;;;4942791;28;20046;-79
2023/08/27 18:35:02;;;;;;;3.43;1.00;;;16.00;84.40;;;;;;4958486;28;20118;-79
2023/08/27 18:37:27;;;;;;;2.92;1.30;;;16.00;84.40;;;;;;4974262;28;20791;-80
2023/08/27 18:39:53;;;;;;;7.13;1.45;;;16.00;83.80;;;;;;4974347;28;20050;-79
2023/08/27 18:42:19;;;;;;;6.50;1.42;;;16.00;83.70;;;;;;4958226;28;20048;-79
2023/08/27 18:44:45;;;;;;;4.53;2.60;;;16.00;83.70;;;;;;4958111;28;20045;-79
2023/08/27 18:47:10;;;;;;;3.30;1.80;;;16.00;83.10;;;;;;4958018;28;20042;-79
2023/08/27 18:49:36;;;;;;;1.60;1.00;;;15.90;83.20;;;;;;4976935;28;20051;-81
2023/08/27 18:52:02;;;;;;;3.67;1.50;;;15.80;83.20;;;;;;4978232;28;20049;-79
2023/08/27 18:54:28;;;;;;;2.17;1.10;;;15.70;83.40;;;;;;4929950;28;20042;-79
2023/08/27 18:56:53;;;;;;;5.78;1.70;;;15.70;84.10;;;;;;4960139;28;20042;-79
2023/08/27 18:59:19;;;;;;;4.75;1.10;;;15.60;84.00;;;;;;4929185;28;20042;-79
2023/08/27 19:01:45;;;;;;;4.32;1.27;;;15.60;84.30;;;;;;4945216;28;20125;-80
2023/08/27 19:04:10;;;;;;;6.30;1.10;;;15.50;84.80;;;;;;4961799;28;20042;-79
2023/08/27 19:06:36;;;;;;;5.70;1.10;;;15.50;84.70;;;;;;4977624;28;20487;-80
2023/08/27 19:09:03;;;;;;;4.63;1.20;;;15.40;84.40;;;;;;4929644;28;20057;-80
2023/08/27 19:11:29;;;;;;;5.13;1.98;;;15.50;84.70;;;;;;4961391;28;20081;-80
2023/08/27 19:13:54;;;;;;;3.03;1.00;;;15.40;84.80;;;;;;4945311;28;20085;-80
2023/08/27 19:16:20;;;;;;;3.90;1.25;;;15.30;84.90;;;;;;4945281;28;20113;-80
2023/08/27 19:18:46;;;;;;;4.07;1.30;;;15.30;84.70;;;;;;4945219;28;20097;-80
2023/08/27 19:21:11;;;;;;;2.65;0.98;;;15.30;84.50;;;;;;4945064;28;20034;-80
2023/08/27 19:23:37;;;;;;;2.70;1.17;;;15.20;84.30;;;;;;4945421;28;20395;-80
2023/08/27 19:26:03;;;;;;;4.90;0.95;;;15.20;84.20;;;;;;4960931;28;20491;-80
2023/08/27 19:28:29;;;;;;;3.50;0.95;;;15.20;84.20;;;;;;4945093;28;20490;-79
2023/08/27 19:31:02;;;;;;;5.00;0.70;;;15.20;84.10;;;;;;4945283;28;20049;-79
2023/08/27 19:33:28;;;;;;;3.75;1.05;;;15.10;84.10;;;;;;4961072;28;20049;-79
2023/08/27 19:35:54;;;;;;;1.10;0.82;;;15.10;83.90;;;;;;4944750;28;20050;-81
2023/08/27 19:38:19;;;;;;;7.53;3.17;;;15.00;84.20;;;;;;4976399;28;20038;-80
2023/08/27 19:40:45;;;;;;;5.38;2.40;;;15.00;84.10;;;;;;4944913;28;20073;-80
2023/08/27 19:43:11;;;;;;;2.50;1.25;;;15.00;84.30;;;;;;4960980;28;20042;-80
2023/08/27 19:45:36;;;;;;;1.80;0.85;;;15.00;84.60;;;;;;4944803;28;20514;-79
2023/08/27 19:48:02;;;;;;;2.03;1.05;;;14.90;84.60;;;;;;4960714;28;20038;-80
2023/08/27 19:50:28;;;;;;;3.15;0.90;;;14.90;84.80;;;;;;4960275;28;20070;-79
2023/08/27 19:52:54;;;;;;;2.13;0.98;;;14.90;85.10;;;;;;4960585;28;20050;-80
2023/08/27 19:55:20;;;;;;;3.85;1.00;;;15.00;85.10;;;;;;4960471;28;20091;-79
2023/08/27 19:57:45;;;;;;;2.47;1.10;;;15.00;85.40;;;;;;4960528;28;20038;-80
2023/08/27 20:00:11;;;;;;;2.97;1.13;;;14.90;85.60;;;;;;4960466;28;20034;-80
2023/08/27 20:02:37;;;;;;;5.68;1.55;;;14.90;85.80;;;;;;4976467;28;20043;-80
2023/08/27 20:05:03;;;;;;;3.58;1.35;;;15.00;86.00;;;;;;4960677;28;20065;-80
2023/08/27 20:07:29;;;;;;;3.58;1.45;;;15.00;86.00;;;;;;4960627;28;20096;-80
2023/08/27 20:09:56;;;;;;;3.78;1.33;;;15.10;86.30;;;;;;4960450;28;20125;-80
2023/08/27 20:12:22;;;;;;;3.13;1.27;;;15.20;86.60;;;;;;4976290;28;20046;-79
2023/08/27 20:14:48;;;;;;;3.92;1.08;;;15.10;86.60;;;;;;4928773;28;20042;-79
2023/08/27 20:17:13;;;;;;;2.20;1.15;;;15.20;87.00;;;;;;4960270;28;20403;-79
2023/08/27 20:19:39;;;;;;;3.78;1.20;;;15.20;86.80;;;;;;4960287;28;20192;-80
2023/08/27 20:22:05;;;;;;;6.03;1.52;;;15.20;87.20;;;;;;4960177;28;20045;-79
2023/08/27 20:24:30;;;;;;;4.65;1.70;;;15.20;87.50;;;;;;4976600;28;20038;-79
2023/08/27 20:27:00;;;;;;;2.90;1.45;;;15.30;87.70;;;;;;4944524;28;20046;-79
2023/08/27 20:29:26;;;;;;;2.97;1.38;;;15.20;87.80;;;;;;4960361;28;20121;-79
2023/08/27 20:31:52;;;;;;;4.50;1.45;;;15.20;88.00;;;;;;4960620;28;20390;-78
2023/08/27 20:34:18;;;;;;;3.78;1.55;;;15.20;88.10;;;;;;4976342;28;20128;-79